KAXH

Houston-Southwest Airport

Houston, Texas, USA
METAR KAXH 171455Z AUTO 00000KT 4SM BR CLR 12/10 A3029 RMK AO2 T01160103
Observed Flight Rules
Dec-17 @ 14:55 UTC (15 minutes ago) Marginal Visual Flight Rules
Visibility Clouds Conditions
4 miles
  • Clear skies
  • Mist
Temperatures Readings
Current 12°C / 54°F
Dewpoint 10°C / 50°F
Humidity 88%
Altimeter 30.29" Hg
Pressure 1026 hPa
Elevation 21
METAR KAXH 171455Z AUTO 00000KT 4SM BR CLR 12/10 A3029 RMK AO2 T01160103
Observed Flight Rules
Dec-17 @ 14:55 UTC
(15 minutes ago)
MVFR
Clouds
  • Clear skies
Conditions
  • Mist
Temperature Dewpoint
12°C / 54°F 10°C / 50°F
Humidity Altimeter Pressure
88% 30.29" Hg 1026 hPa